createdAt,value
2023-03-08T00:00:25.763Z,41.94
2023-03-08T00:02:53.958Z,41.94
2023-03-08T00:05:20.513Z,41.93
2023-03-08T00:07:47.056Z,42.40
2023-03-08T00:10:14.514Z,41.75
2023-03-08T00:12:41.143Z,41.74
2023-03-08T00:15:07.972Z,41.80
2023-03-08T00:17:36.663Z,41.63
2023-03-08T00:20:05.887Z,41.86
2023-03-08T00:22:39.729Z,41.69
2023-03-08T00:25:06.726Z,41.82
2023-03-08T00:27:33.257Z,41.89
2023-03-08T00:29:59.874Z,41.85
2023-03-08T00:32:26.892Z,41.91
2023-03-08T00:34:53.789Z,41.88
2023-03-08T00:37:20.661Z,41.60
2023-03-08T00:39:53.487Z,41.82
2023-03-08T00:42:23.538Z,41.74
2023-03-08T00:44:50.233Z,41.64
2023-03-08T00:47:17.037Z,41.98
2023-03-08T00:49:44.131Z,41.77
2023-03-08T00:52:10.849Z,41.67
2023-03-08T00:54:37.687Z,41.86
2023-03-08T00:57:04.328Z,41.77
2023-03-08T00:59:30.834Z,41.70
2023-03-08T01:01:57.444Z,41.83
2023-03-08T01:04:24.083Z,41.38
2023-03-08T01:06:50.631Z,41.83
2023-03-08T01:09:17.142Z,41.59
2023-03-08T01:11:44.315Z,42.16
2023-03-08T01:14:10.907Z,42.09
2023-03-08T01:16:37.624Z,41.70
2023-03-08T01:19:04.378Z,41.78
2023-03-08T01:21:31.119Z,41.71
2023-03-08T01:23:57.781Z,41.87
2023-03-08T01:26:25.583Z,41.62
2023-03-08T01:28:52.189Z,41.70
2023-03-08T01:31:20.583Z,41.69
2023-03-08T01:33:47.363Z,41.42
2023-03-08T01:36:15.389Z,41.68
2023-03-08T01:38:42.104Z,41.69
2023-03-08T01:41:11.426Z,41.85
2023-03-08T01:43:38.640Z,41.73
2023-03-08T01:46:26.186Z,41.78
2023-03-08T01:48:56.715Z,41.88
2023-03-08T01:51:57.390Z,41.58
2023-03-08T01:54:30.014Z,41.57
2023-03-08T01:57:00.134Z,41.57
2023-03-08T01:59:26.707Z,41.25
2023-03-08T02:01:53.273Z,41.56
2023-03-08T02:04:19.838Z,41.51
2023-03-08T02:06:46.519Z,41.67
2023-03-08T02:09:13.093Z,41.27
2023-03-08T02:11:39.814Z,41.41
2023-03-08T02:14:06.378Z,41.58
2023-03-08T02:16:32.933Z,41.47
2023-03-08T02:19:01.318Z,41.63
2023-03-08T02:21:28.462Z,41.67
2023-03-08T02:23:55.305Z,41.74
2023-03-08T02:26:22.050Z,41.63
2023-03-08T02:28:48.687Z,41.60
2023-03-08T02:31:15.576Z,41.84
2023-03-08T02:33:42.160Z,41.72
2023-03-08T02:36:09.814Z,41.50
2023-03-08T02:38:36.490Z,41.78
2023-03-08T02:41:03.063Z,41.84
2023-03-08T02:43:29.661Z,41.65
2023-03-08T02:45:56.228Z,41.19
2023-03-08T02:48:22.819Z,41.52
2023-03-08T02:50:50.817Z,41.33
2023-03-08T02:53:17.463Z,41.22
2023-03-08T02:55:44.013Z,41.42
2023-03-08T02:58:10.728Z,41.23
2023-03-08T03:00:37.772Z,41.39
2023-03-08T03:03:04.478Z,41.33
2023-03-08T03:05:31.028Z,41.33
2023-03-08T03:07:58.724Z,40.87
2023-03-08T03:10:25.570Z,41.23
2023-03-08T03:12:52.129Z,41.34
2023-03-08T03:15:18.841Z,41.00
2023-03-08T03:17:45.454Z,40.96
2023-03-08T03:20:12.500Z,41.24
2023-03-08T03:22:39.020Z,41.02
2023-03-08T03:25:06.103Z,41.28
2023-03-08T03:27:32.745Z,41.05
2023-03-08T03:29:59.377Z,40.89
2023-03-08T03:32:26.008Z,41.10
2023-03-08T03:34:52.731Z,40.99
2023-03-08T03:37:19.313Z,40.90
2023-03-08T03:39:45.864Z,40.87
2023-03-08T03:42:12.445Z,41.58
2023-03-08T03:44:39.114Z,40.95
2023-03-08T03:47:05.992Z,40.87
2023-03-08T03:49:32.577Z,40.97
2023-03-08T03:51:59.226Z,40.94
2023-03-08T03:54:25.852Z,40.85
2023-03-08T03:56:52.625Z,40.89
2023-03-08T03:59:19.235Z,41.00
2023-03-08T04:01:45.795Z,40.84
2023-03-08T04:04:12.446Z,40.66
2023-03-08T04:06:39.034Z,40.56
2023-03-08T04:09:07.889Z,40.70
2023-03-08T04:11:36.277Z,40.86
2023-03-08T04:14:02.972Z,40.76
2023-03-08T04:16:31.147Z,40.88
2023-03-08T04:18:59.224Z,40.99
2023-03-08T04:21:26.004Z,41.03
2023-03-08T04:23:53.557Z,41.08
2023-03-08T04:26:20.476Z,40.88
2023-03-08T04:28:47.002Z,40.85
2023-03-08T04:31:13.445Z,40.83
2023-03-08T04:33:40.062Z,40.97
2023-03-08T04:36:06.863Z,40.96
2023-03-08T04:38:33.678Z,41.01
2023-03-08T04:41:10.315Z,40.91
2023-03-08T04:43:36.939Z,40.81
2023-03-08T04:46:04.178Z,41.09
2023-03-08T04:48:30.722Z,40.93
2023-03-08T04:50:58.860Z,40.70
2023-03-08T04:53:25.684Z,40.90
2023-03-08T04:55:53.489Z,40.85
2023-03-08T04:58:19.984Z,40.79
2023-03-08T05:00:46.578Z,40.99
2023-03-08T05:03:13.623Z,40.57
2023-03-08T05:05:54.303Z,40.52
2023-03-08T05:08:21.133Z,40.70
2023-03-08T05:10:55.368Z,40.33
2023-03-08T05:13:21.886Z,41.02
2023-03-08T05:15:48.533Z,40.57
2023-03-08T05:18:15.114Z,40.94
2023-03-08T05:20:41.667Z,40.89
2023-03-08T05:23:08.202Z,40.60
2023-03-08T05:25:34.766Z,40.25
2023-03-08T05:28:01.346Z,40.51
2023-03-08T05:30:27.988Z,40.59
2023-03-08T05:32:54.696Z,40.52
2023-03-08T05:35:21.268Z,40.36
2023-03-08T05:37:47.898Z,40.93
2023-03-08T05:40:14.539Z,40.08
2023-03-08T05:42:41.083Z,40.48
2023-03-08T05:45:08.295Z,40.55
2023-03-08T05:47:34.979Z,39.75
2023-03-08T05:50:01.510Z,40.30
2023-03-08T05:52:29.896Z,40.54
2023-03-08T05:54:56.392Z,40.41
2023-03-08T05:57:22.908Z,40.30
2023-03-08T05:59:49.505Z,40.38
2023-03-08T06:02:16.096Z,40.32
2023-03-08T06:04:42.749Z,40.08
2023-03-08T06:07:09.246Z,40.63
2023-03-08T06:09:35.783Z,40.36
2023-03-08T06:12:02.359Z,40.30
2023-03-08T06:14:29.131Z,40.25
2023-03-08T06:16:55.730Z,40.05
2023-03-08T06:19:22.379Z,40.03
2023-03-08T06:21:48.917Z,40.29
2023-03-08T06:24:15.492Z,40.07
2023-03-08T06:26:42.044Z,40.36
2023-03-08T06:29:08.548Z,40.27
2023-03-08T06:31:35.050Z,40.08
2023-03-08T06:34:01.606Z,40.04
2023-03-08T06:36:28.235Z,40.12
2023-03-08T06:38:54.819Z,40.17
2023-03-08T06:41:21.889Z,40.31
2023-03-08T06:43:48.746Z,40.12
2023-03-08T06:46:17.167Z,40.20
2023-03-08T06:48:43.964Z,40.03
2023-03-08T06:51:10.499Z,40.16
2023-03-08T06:53:38.237Z,40.17
2023-03-08T06:56:06.755Z,40.35
2023-03-08T06:58:34.335Z,40.30
2023-03-08T07:01:01.097Z,40.40
2023-03-08T07:03:27.937Z,40.42
2023-03-08T07:06:01.343Z,40.37
2023-03-08T07:08:27.984Z,39.99
2023-03-08T07:10:54.542Z,40.17
2023-03-08T07:13:23.575Z,40.40
2023-03-08T07:15:51.019Z,40.29
2023-03-08T07:18:17.837Z,40.43
2023-03-08T07:20:44.427Z,40.35
2023-03-08T07:23:10.946Z,40.15
2023-03-08T07:25:40.614Z,37.89
2023-03-08T07:28:07.168Z,36.70
2023-03-08T07:30:33.652Z,36.76
2023-03-08T07:33:00.285Z,37.82
2023-03-08T07:35:26.931Z,37.46
2023-03-08T07:37:53.468Z,38.31
2023-03-08T07:40:20.002Z,38.19
2023-03-08T07:42:46.512Z,38.80
2023-03-08T07:45:13.023Z,38.99
2023-03-08T07:47:40.607Z,38.97
2023-03-08T07:50:08.019Z,39.41
2023-03-08T07:52:34.526Z,39.95
2023-03-08T07:55:02.667Z,39.52
2023-03-08T07:57:29.243Z,39.78
2023-03-08T07:59:55.855Z,39.60
2023-03-08T08:02:22.425Z,39.89
2023-03-08T08:04:49.086Z,39.89
2023-03-08T08:07:15.927Z,40.27
2023-03-08T08:09:42.763Z,40.19
2023-03-08T08:12:09.330Z,40.34
2023-03-08T08:14:35.884Z,40.29
2023-03-08T08:17:02.409Z,40.28
2023-03-08T08:19:29.640Z,40.31
2023-03-08T08:21:56.144Z,40.61
2023-03-08T08:24:22.732Z,40.36
2023-03-08T08:26:49.310Z,40.02
2023-03-08T08:29:15.856Z,40.71
2023-03-08T08:31:42.437Z,40.17
2023-03-08T08:34:09.039Z,40.12
2023-03-08T08:36:35.624Z,40.06
2023-03-08T08:39:02.184Z,40.60
2023-03-08T08:41:29.853Z,40.52
2023-03-08T08:43:58.991Z,40.31
2023-03-08T08:46:25.950Z,40.33
2023-03-08T08:48:52.423Z,40.55
2023-03-08T08:51:18.934Z,40.74
2023-03-08T08:53:45.429Z,40.67
2023-03-08T08:56:29.068Z,40.71
2023-03-08T08:58:56.868Z,40.77
2023-03-08T09:01:25.286Z,40.72
2023-03-08T09:03:52.021Z,40.82
2023-03-08T09:06:19.892Z,40.64
2023-03-08T09:08:50.800Z,40.87
2023-03-08T09:11:17.462Z,41.02
2023-03-08T09:13:44.035Z,40.65
2023-03-08T09:16:20.390Z,40.92
2023-03-08T09:18:47.105Z,40.89
2023-03-08T09:21:14.274Z,40.81
2023-03-08T09:23:41.042Z,41.05
2023-03-08T09:26:07.609Z,40.95
2023-03-08T09:28:34.179Z,41.10
2023-03-08T09:31:02.761Z,41.13
2023-03-08T09:33:29.337Z,41.10
2023-03-08T09:35:59.310Z,41.28
2023-03-08T09:38:25.938Z,41.13
2023-03-08T09:41:17.221Z,41.17
2023-03-08T09:44:11.780Z,41.13
2023-03-08T09:46:46.217Z,41.22
2023-03-08T09:49:14.719Z,41.23
2023-03-08T09:51:43.051Z,41.33
2023-03-08T09:54:16.921Z,41.47
2023-03-08T09:56:48.266Z,41.53
2023-03-08T09:59:19.539Z,41.53
2023-03-08T10:02:17.381Z,41.23
2023-03-08T10:05:30.545Z,41.23
2023-03-08T10:08:12.555Z,41.33
2023-03-08T10:10:51.329Z,41.22
2023-03-08T10:13:38.043Z,41.34
2023-03-08T10:16:20.927Z,41.32
2023-03-08T10:18:51.525Z,41.42
2023-03-08T10:21:20.079Z,41.58
2023-03-08T10:23:47.756Z,41.40
2023-03-08T10:26:14.925Z,41.56
2023-03-08T10:28:41.510Z,41.68
2023-03-08T10:31:23.317Z,41.61
2023-03-08T10:33:53.087Z,41.70
2023-03-08T10:36:21.567Z,41.67
2023-03-08T10:39:04.564Z,41.32
2023-03-08T10:41:32.965Z,42.25
2023-03-08T10:43:59.800Z,41.78
2023-03-08T10:46:28.481Z,41.84
2023-03-08T10:48:55.077Z,41.97
2023-03-08T10:51:23.927Z,41.81
2023-03-08T10:54:02.832Z,41.79
2023-03-08T10:56:39.284Z,41.71
2023-03-08T10:59:07.162Z,41.80
2023-03-08T11:01:35.047Z,41.90
2023-03-08T11:04:06.580Z,42.13
2023-03-08T11:06:35.141Z,41.73
2023-03-08T11:09:04.522Z,42.10
2023-03-08T11:11:40.647Z,41.94
2023-03-08T11:14:09.714Z,41.97
2023-03-08T11:16:58.027Z,42.08
2023-03-08T11:19:48.147Z,41.86
2023-03-08T11:22:33.329Z,42.11
2023-03-08T11:25:08.919Z,42.04
2023-03-08T11:27:53.112Z,42.09
2023-03-08T11:30:40.921Z,41.88
2023-03-08T11:33:24.645Z,42.14
2023-03-08T11:35:57.085Z,42.19
2023-03-08T11:38:30.814Z,41.80
2023-03-08T11:41:00.285Z,42.17
2023-03-08T11:44:07.270Z,42.07
2023-03-08T11:46:42.796Z,42.15
2023-03-08T11:49:28.015Z,42.02
2023-03-08T11:51:58.314Z,42.11
2023-03-08T11:54:30.805Z,42.22
2023-03-08T11:56:57.946Z,42.09
2023-03-08T11:59:33.759Z,42.37
2023-03-08T12:02:06.258Z,42.26
2023-03-08T12:04:38.657Z,42.20
2023-03-08T12:07:09.472Z,42.28
2023-03-08T12:10:08.437Z,41.98
2023-03-08T12:12:40.946Z,42.21
2023-03-08T12:15:25.141Z,42.37
2023-03-08T12:18:16.170Z,42.16
2023-03-08T12:20:43.512Z,42.38
2023-03-08T12:23:25.288Z,42.39
2023-03-08T12:25:56.354Z,42.43
2023-03-08T12:28:26.931Z,42.39
2023-03-08T12:31:26.590Z,42.35
2023-03-08T12:33:54.927Z,42.36
2023-03-08T12:36:24.643Z,42.14
2023-03-08T12:38:56.545Z,42.19
2023-03-08T12:41:27.040Z,42.20
2023-03-08T12:44:25.930Z,42.22
2023-03-08T12:47:03.465Z,42.11
2023-03-08T12:49:35.728Z,42.23
2023-03-08T12:52:07.056Z,42.38
2023-03-08T12:54:34.647Z,42.38
2023-03-08T12:57:02.798Z,42.66
2023-03-08T12:59:36.066Z,42.12
2023-03-08T13:02:21.253Z,42.38
2023-03-08T13:04:47.773Z,42.32
2023-03-08T13:07:52.842Z,42.41
2023-03-08T13:10:24.451Z,42.56
2023-03-08T13:13:27.018Z,42.44
2023-03-08T13:16:19.950Z,42.50
2023-03-08T13:18:48.181Z,42.33
2023-03-08T13:21:31.156Z,42.34
2023-03-08T13:24:12.746Z,42.53
2023-03-08T13:27:00.617Z,42.40
2023-03-08T13:29:31.695Z,42.63
2023-03-08T13:31:58.204Z,42.54
2023-03-08T13:34:29.007Z,42.54
2023-03-08T13:36:55.854Z,42.57
2023-03-08T13:39:24.802Z,42.37
2023-03-08T13:41:51.507Z,42.43
2023-03-08T13:44:21.387Z,42.87
2023-03-08T13:46:49.226Z,43.18
2023-03-08T13:49:16.764Z,43.41
2023-03-08T13:51:44.096Z,43.34
2023-03-08T13:54:23.427Z,43.00
2023-03-08T13:56:53.345Z,43.12
2023-03-08T13:59:20.599Z,42.96
2023-03-08T14:01:50.851Z,42.55
2023-03-08T14:04:27.955Z,42.86
2023-03-08T14:06:56.116Z,43.04
2023-03-08T14:09:22.880Z,43.13
2023-03-08T14:11:55.937Z,42.96
2023-03-08T14:14:36.592Z,42.79
2023-03-08T14:17:03.305Z,42.98
2023-03-08T14:19:31.456Z,42.98
2023-03-08T14:21:59.746Z,42.88
2023-03-08T14:24:33.527Z,42.87
2023-03-08T14:27:15.664Z,42.93
2023-03-08T14:29:43.261Z,42.94
2023-03-08T14:32:13.231Z,43.06
2023-03-08T14:34:40.691Z,42.81
2023-03-08T14:37:26.455Z,42.94
2023-03-08T14:39:54.468Z,42.94
2023-03-08T14:42:24.733Z,42.98
2023-03-08T14:45:22.628Z,43.09
2023-03-08T14:47:54.084Z,42.87
2023-03-08T14:50:23.762Z,43.02
2023-03-08T14:52:52.384Z,42.96
2023-03-08T14:55:23.425Z,42.95
2023-03-08T14:58:11.310Z,43.02
2023-03-08T15:00:47.935Z,42.90
2023-03-08T15:03:14.606Z,43.34
2023-03-08T15:05:41.150Z,43.02
2023-03-08T15:08:10.325Z,42.83
2023-03-08T15:10:37.717Z,42.99
2023-03-08T15:13:05.160Z,42.87
2023-03-08T15:15:31.665Z,42.75
2023-03-08T15:17:58.180Z,42.74
2023-03-08T15:20:25.051Z,42.52
2023-03-08T15:22:53.997Z,42.99
2023-03-08T15:25:31.286Z,42.84
2023-03-08T15:27:58.052Z,42.63
2023-03-08T15:30:26.139Z,42.88
2023-03-08T15:32:52.756Z,43.01
2023-03-08T15:35:19.712Z,43.29
2023-03-08T15:37:46.345Z,42.92
2023-03-08T15:40:18.033Z,42.88
2023-03-08T15:42:44.537Z,42.97
2023-03-08T15:45:11.423Z,42.95
2023-03-08T15:47:38.111Z,43.36
2023-03-08T15:50:05.575Z,42.98
2023-03-08T15:52:32.626Z,42.96
2023-03-08T15:54:59.414Z,43.03
2023-03-08T15:57:25.967Z,42.70
2023-03-08T15:59:52.613Z,43.50
2023-03-08T16:02:19.665Z,42.96
2023-03-08T16:04:47.869Z,42.72
2023-03-08T16:07:15.826Z,42.80
2023-03-08T16:09:42.488Z,42.88
2023-03-08T16:12:09.178Z,42.99
2023-03-08T16:14:36.174Z,43.02
2023-03-08T16:17:03.862Z,42.97
2023-03-08T16:19:34.159Z,42.95
2023-03-08T16:22:01.066Z,42.68
2023-03-08T16:24:28.151Z,42.87
2023-03-08T16:26:54.830Z,43.04
2023-03-08T16:29:22.059Z,43.03
2023-03-08T16:31:49.102Z,42.89
2023-03-08T16:34:16.020Z,43.11
2023-03-08T16:36:42.523Z,42.88
2023-03-08T16:39:09.215Z,43.06
2023-03-08T16:41:39.663Z,43.06
2023-03-08T16:44:06.573Z,43.05
2023-03-08T16:46:33.125Z,43.15
2023-03-08T16:48:59.772Z,42.89
2023-03-08T16:51:27.582Z,43.10
2023-03-08T16:53:54.417Z,43.18
2023-03-08T16:56:25.047Z,42.95
2023-03-08T16:58:51.739Z,43.17
2023-03-08T17:01:18.812Z,43.29
2023-03-08T17:03:45.366Z,43.14
2023-03-08T17:06:12.834Z,43.25
2023-03-08T17:08:39.335Z,43.07
2023-03-08T17:11:06.242Z,43.05
2023-03-08T17:13:33.050Z,43.20
2023-03-08T17:15:59.585Z,43.22
2023-03-08T17:18:26.126Z,43.14
2023-03-08T17:20:52.891Z,43.06
2023-03-08T17:23:19.755Z,43.25
2023-03-08T17:25:46.505Z,43.06
2023-03-08T17:28:13.122Z,43.02
2023-03-08T17:30:41.292Z,43.32
2023-03-08T17:33:09.231Z,43.09
2023-03-08T17:35:39.675Z,43.22
2023-03-08T17:38:06.333Z,43.18
2023-03-08T17:40:32.872Z,43.13
2023-03-08T17:43:02.425Z,43.25
2023-03-08T17:45:29.287Z,43.10
2023-03-08T17:48:01.150Z,43.23
2023-03-08T17:50:29.849Z,43.13
2023-03-08T17:52:56.613Z,43.32
2023-03-08T17:55:23.377Z,43.25
2023-03-08T17:57:49.865Z,43.18
2023-03-08T18:00:16.684Z,43.34
2023-03-08T18:02:43.288Z,43.27
2023-03-08T18:05:10.971Z,43.23
2023-03-08T18:07:39.344Z,43.07
2023-03-08T18:10:10.893Z,43.01
2023-03-08T18:12:37.429Z,43.21
2023-03-08T18:15:04.400Z,43.20
2023-03-08T18:17:30.929Z,43.24
2023-03-08T18:19:57.436Z,43.27
2023-03-08T18:22:23.911Z,43.05
2023-03-08T18:24:50.416Z,43.25
2023-03-08T18:27:16.923Z,42.86
2023-03-08T18:29:43.797Z,42.95
2023-03-08T18:32:10.457Z,43.40
2023-03-08T18:34:38.399Z,43.27
2023-03-08T18:37:05.294Z,43.12
2023-03-08T18:39:31.843Z,43.35
2023-03-08T18:42:00.659Z,43.19
2023-03-08T18:44:28.269Z,43.21
2023-03-08T18:46:54.940Z,43.03
2023-03-08T18:49:21.676Z,43.28
2023-03-08T18:51:48.232Z,43.14
2023-03-08T18:54:17.374Z,43.29
2023-03-08T18:56:44.255Z,43.26
2023-03-08T18:59:12.092Z,43.42
2023-03-08T19:01:38.723Z,43.18
2023-03-08T19:04:06.916Z,43.23
2023-03-08T19:06:34.400Z,43.28
2023-03-08T19:09:02.104Z,43.18
2023-03-08T19:11:28.776Z,43.36
2023-03-08T19:13:55.366Z,43.18
2023-03-08T19:16:26.034Z,43.28
2023-03-08T19:18:54.505Z,43.25
2023-03-08T19:21:28.168Z,43.47
2023-03-08T19:23:54.818Z,43.41
2023-03-08T19:26:38.684Z,43.49
2023-03-08T19:29:19.478Z,43.58
2023-03-08T19:31:53.128Z,43.50
2023-03-08T19:34:20.939Z,43.45
2023-03-08T19:36:47.743Z,43.42
2023-03-08T19:39:19.999Z,43.52
2023-03-08T19:41:55.199Z,43.52
2023-03-08T19:44:21.820Z,43.32
2023-03-08T19:46:48.453Z,43.37
2023-03-08T19:49:17.265Z,43.47
2023-03-08T19:51:44.373Z,43.24
2023-03-08T19:54:11.870Z,44.11
2023-03-08T19:56:38.436Z,43.39
2023-03-08T19:59:05.058Z,43.56
2023-03-08T20:01:31.920Z,43.58
2023-03-08T20:03:58.700Z,43.45
2023-03-08T20:06:27.441Z,43.51
2023-03-08T20:08:55.607Z,43.52
2023-03-08T20:11:22.329Z,43.70
2023-03-08T20:13:49.016Z,43.48
2023-03-08T20:16:16.068Z,43.68
2023-03-08T20:18:42.825Z,43.41
2023-03-08T20:21:30.042Z,43.56
2023-03-08T20:23:57.549Z,43.47
2023-03-08T20:26:30.656Z,43.61
2023-03-08T20:28:57.615Z,43.81
2023-03-08T20:31:26.272Z,43.54
2023-03-08T20:33:52.869Z,43.69
2023-03-08T20:36:19.620Z,43.44
2023-03-08T20:38:46.292Z,43.61
2023-03-08T20:41:15.871Z,43.54
2023-03-08T20:43:43.491Z,43.46
2023-03-08T20:46:11.707Z,43.47
2023-03-08T20:48:39.812Z,43.47
2023-03-08T20:51:07.469Z,43.67
2023-03-08T20:53:34.746Z,43.59
2023-03-08T20:56:11.478Z,43.20
2023-03-08T20:58:38.139Z,43.60
2023-03-08T21:01:14.755Z,43.67
2023-03-08T21:03:41.490Z,43.59
2023-03-08T21:06:16.031Z,43.53
2023-03-08T21:08:42.700Z,43.67
2023-03-08T21:11:09.364Z,43.59
2023-03-08T21:13:38.761Z,43.52
2023-03-08T21:16:07.500Z,43.66
2023-03-08T21:18:45.760Z,43.61
2023-03-08T21:21:27.295Z,43.58
2023-03-08T21:24:00.510Z,43.35
2023-03-08T21:26:27.731Z,43.76
2023-03-08T21:28:56.325Z,43.65
2023-03-08T21:31:23.594Z,43.71
2023-03-08T21:33:50.342Z,43.82
2023-03-08T21:36:17.242Z,44.04
2023-03-08T21:38:43.838Z,43.58
2023-03-08T21:41:20.782Z,43.45
2023-03-08T21:43:50.176Z,43.74
2023-03-08T21:46:16.980Z,43.50
2023-03-08T21:48:43.744Z,43.83
2023-03-08T21:51:10.334Z,43.93
2023-03-08T21:53:41.998Z,43.72
2023-03-08T21:56:12.894Z,43.74
2023-03-08T21:58:42.277Z,43.83
2023-03-08T22:01:29.433Z,43.85
2023-03-08T22:03:57.514Z,43.74
2023-03-08T22:06:24.271Z,44.25
2023-03-08T22:08:50.987Z,43.79
2023-03-08T22:11:18.146Z,43.82
2023-03-08T22:13:49.060Z,43.75
2023-03-08T22:16:15.679Z,43.65
2023-03-08T22:18:42.323Z,43.41
2023-03-08T22:21:08.976Z,43.78
2023-03-08T22:23:35.655Z,43.80
2023-03-08T22:26:02.281Z,43.86
2023-03-08T22:28:29.046Z,43.90
2023-03-08T22:30:55.754Z,43.51
2023-03-08T22:33:22.394Z,44.37
2023-03-08T22:35:49.156Z,43.78
2023-03-08T22:38:18.239Z,43.90
2023-03-08T22:40:44.974Z,43.78
2023-03-08T22:43:11.651Z,43.85
2023-03-08T22:45:38.364Z,43.86
2023-03-08T22:48:06.957Z,44.06
2023-03-08T22:50:33.627Z,43.99
2023-03-08T22:53:00.194Z,44.01
2023-03-08T22:55:26.868Z,44.04
2023-03-08T22:57:53.514Z,43.97
2023-03-08T23:00:20.598Z,43.99
2023-03-08T23:02:49.927Z,44.18
2023-03-08T23:05:18.451Z,44.20
2023-03-08T23:07:44.992Z,44.01
2023-03-08T23:10:12.110Z,44.06
2023-03-08T23:12:38.900Z,44.14
2023-03-08T23:15:06.324Z,44.19
2023-03-08T23:17:35.249Z,43.94
2023-03-08T23:20:06.783Z,44.18
2023-03-08T23:22:33.312Z,43.84
2023-03-08T23:24:59.941Z,44.26
2023-03-08T23:27:29.008Z,44.67
2023-03-08T23:29:55.631Z,44.47
2023-03-08T23:32:22.170Z,44.09
2023-03-08T23:34:48.755Z,44.19
2023-03-08T23:37:15.453Z,44.31
2023-03-08T23:39:43.428Z,44.32
2023-03-08T23:42:10.040Z,44.30
2023-03-08T23:44:37.776Z,44.50
2023-03-08T23:47:04.474Z,44.41
2023-03-08T23:49:31.058Z,44.37
2023-03-08T23:51:57.597Z,44.45
2023-03-08T23:54:24.276Z,44.61
2023-03-08T23:56:50.836Z,44.43
2023-03-08T23:59:19.689Z,44.62
